Time;durP1;ratioP1;P1;durP2;ratioP2;P2;SDS_P1;SDS_P2;PMS_P1;PMS_P2;Temp;Humidity;BMP_temperature;BMP_pressure;BME280_temperature;BME280_humidity;BME280_pressure;Samples;Min_cycle;Max_cycle;Signal;HPM_P1;HPM_P2
2023/12/02 00:00:41;;;;;;;;;;;22.00;57.50;;;;;;5075099;28;19917;-40
2023/12/02 00:03:07;;;;;;;;;;;22.00;57.50;;;;;;5081323;28;19944;-40
2023/12/02 00:05:33;;;;;;;;;;;22.00;57.60;;;;;;5079714;28;19912;-40
2023/12/02 00:07:59;;;;;;;;;;;21.90;57.50;;;;;;5079081;28;19908;-40
2023/12/02 00:10:25;;;;;;;;;;;21.90;57.50;;;;;;5085452;28;19962;-40
2023/12/02 00:12:51;;;;;;;;;;;21.90;57.50;;;;;;5076852;28;19920;-41
2023/12/02 00:15:17;;;;;;;;;;;22.00;58.00;;;;;;5082256;28;19926;-40
2023/12/02 00:17:42;;;;;;;;;;;22.00;58.40;;;;;;5085059;28;19913;-40
2023/12/02 00:20:09;;;;;;;;;;;22.10;58.10;;;;;;5082399;28;19916;-40
2023/12/02 00:22:34;;;;;;;;;;;22.00;57.60;;;;;;5082907;28;19908;-41
2023/12/02 00:25:00;;;;;;;;;;;22.00;57.50;;;;;;5086149;28;19912;-40
2023/12/02 00:27:26;;;;;;;;;;;22.00;57.50;;;;;;5084889;28;19923;-40
2023/12/02 00:29:52;;;;;;;;;;;22.00;57.60;;;;;;5085731;28;19912;-40
2023/12/02 00:32:18;;;;;;;;;;;22.00;57.70;;;;;;5088838;28;19913;-40
2023/12/02 00:34:44;;;;;;;;;;;22.00;57.70;;;;;;5083491;28;19931;-41
2023/12/02 00:37:10;;;;;;;;;;;22.00;57.70;;;;;;5084652;28;19912;-41
2023/12/02 00:39:36;;;;;;;;;;;22.00;57.70;;;;;;5077606;28;20159;-41
2023/12/02 00:42:02;;;;;;;;;;;22.00;57.70;;;;;;5080436;28;19926;-41
2023/12/02 00:44:28;;;;;;;;;;;22.00;57.80;;;;;;5079205;28;19927;-41
2023/12/02 00:46:54;;;;;;;;;;;22.00;58.40;;;;;;5083295;28;19912;-41
2023/12/02 00:49:20;;;;;;;;;;;22.00;58.30;;;;;;5078719;28;19924;-40
2023/12/02 00:51:46;;;;;;;;;;;22.10;57.90;;;;;;5084598;28;19915;-42
2023/12/02 00:54:12;;;;;;;;;;;22.00;57.70;;;;;;5071927;28;19935;-42
2023/12/02 00:56:38;;;;;;;;;;;22.00;57.70;;;;;;5075610;28;19908;-41
2023/12/02 00:59:04;;;;;;;;;;;22.00;57.80;;;;;;5081129;28;19920;-41
2023/12/02 01:01:29;;;;;;;;;;;22.00;57.80;;;;;;5074189;28;19924;-41
2023/12/02 01:03:55;;;;;;;;;;;22.00;57.80;;;;;;5085639;28;19947;-40
2023/12/02 01:06:21;;;;;;;;;;;22.00;57.80;;;;;;5078949;28;19983;-42
2023/12/02 01:08:47;;;;;;;;;;;22.00;57.80;;;;;;5080226;28;20589;-41
2023/12/02 01:11:13;;;;;;;;;;;22.00;57.80;;;;;;5089880;28;19980;-42
2023/12/02 01:13:39;;;;;;;;;;;21.90;57.80;;;;;;5076611;28;19912;-40
2023/12/02 01:16:05;;;;;;;;;;;21.90;57.80;;;;;;5079997;28;19917;-42
2023/12/02 01:18:31;;;;;;;;;;;22.00;58.20;;;;;;5076564;28;20448;-41
2023/12/02 01:20:57;;;;;;;;;;;22.00;58.40;;;;;;5093791;28;19955;-41
2023/12/02 01:23:23;;;;;;;;;;;22.10;58.40;;;;;;5081138;28;19908;-41
2023/12/02 01:25:50;;;;;;;;;;;22.10;58.10;;;;;;5079422;28;19952;-41
2023/12/02 01:28:16;;;;;;;;;;;22.10;58.40;;;;;;5075230;28;19972;-39
2023/12/02 01:30:41;;;;;;;;;;;22.10;58.50;;;;;;5081531;28;19908;-40
2023/12/02 01:33:08;;;;;;;;;;;22.10;58.50;;;;;;5074223;28;19957;-40
2023/12/02 01:35:34;;;;;;;;;;;22.10;58.70;;;;;;5076281;28;20343;-41
2023/12/02 01:37:59;;;;;;;;;;;22.10;58.60;;;;;;5071635;28;19940;-41
2023/12/02 01:40:25;;;;;;;;;;;22.10;58.40;;;;;;5083333;28;19920;-41
2023/12/02 01:42:51;;;;;;;;;;;22.10;58.50;;;;;;5080433;28;19909;-41
2023/12/02 01:45:17;;;;;;;;;;;22.10;58.70;;;;;;5083798;28;19916;-41
2023/12/02 01:47:43;;;;;;;;;;;22.10;58.60;;;;;;5083142;28;19919;-41
2023/12/02 01:50:09;;;;;;;;;;;22.10;58.50;;;;;;5078111;28;19908;-40
2023/12/02 01:52:35;;;;;;;;;;;22.10;58.50;;;;;;5076207;28;19908;-41
2023/12/02 01:55:02;;;;;;;;;;;22.20;58.60;;;;;;5083994;28;19919;-41
2023/12/02 01:57:28;;;;;;;;;;;22.20;58.60;;;;;;5077909;28;19912;-41
2023/12/02 01:59:54;;;;;;;;;;;22.20;58.80;;;;;;5057941;28;20017;-40
2023/12/02 02:02:20;;;;;;;;;;;22.20;58.70;;;;;;5082517;28;19935;-41
2023/12/02 02:04:46;;;;;;;;;;;22.10;58.70;;;;;;5079441;28;19912;-41
2023/12/02 02:07:12;;;;;;;;;;;22.10;58.70;;;;;;5083467;28;19919;-41
2023/12/02 02:09:44;;;;;;;;;;;22.10;58.80;;;;;;5077364;28;19908;-41
2023/12/02 02:12:10;;;;;;;;;;;22.20;58.60;;;;;;5080854;28;19913;-41
2023/12/02 02:14:36;;;;;;;;;;;22.20;58.70;;;;;;5081421;28;19939;-40
2023/12/02 02:17:02;;;;;;;;;;;22.20;58.70;;;;;;5081959;28;19908;-41
2023/12/02 02:19:28;;;;;;;;;;;22.20;58.80;;;;;;5083315;28;19927;-42
2023/12/02 02:21:54;;;;;;;;;;;22.20;58.80;;;;;;5096040;28;19934;-41
2023/12/02 02:24:20;;;;;;;;;;;22.20;58.90;;;;;;5080221;28;19908;-45
2023/12/02 02:26:46;;;;;;;;;;;22.20;58.90;;;;;;5083781;28;19993;-40
2023/12/02 02:29:12;;;;;;;;;;;22.20;59.40;;;;;;5083440;28;19927;-41
2023/12/02 02:31:39;;;;;;;;;;;22.20;58.80;;;;;;5063686;28;19908;-40
2023/12/02 02:34:05;;;;;;;;;;;22.20;58.90;;;;;;5082998;28;19919;-40
2023/12/02 02:36:31;;;;;;;;;;;22.10;59.10;;;;;;5079952;28;19912;-41
2023/12/02 02:38:57;;;;;;;;;;;22.20;58.90;;;;;;5078129;28;19912;-41
2023/12/02 02:41:23;;;;;;;;;;;22.20;58.80;;;;;;5080690;28;19919;-41
2023/12/02 02:43:50;;;;;;;;;;;22.30;58.80;;;;;;5076189;28;19924;-41
2023/12/02 02:46:16;;;;;;;;;;;22.30;58.80;;;;;;5077662;28;20562;-40
2023/12/02 02:48:43;;;;;;;;;;;22.20;58.80;;;;;;5081388;28;19912;-39
2023/12/02 02:51:09;;;;;;;;;;;22.20;58.80;;;;;;5082760;28;19908;-41
2023/12/02 02:53:36;;;;;;;;;;;22.20;58.90;;;;;;5082482;28;19912;-40
2023/12/02 02:56:03;;;;;;;;;;;22.20;58.90;;;;;;5081478;28;19931;-40
2023/12/02 02:58:29;;;;;;;;;;;22.20;59.10;;;;;;5081363;28;19955;-42
2023/12/02 03:00:55;;;;;;;;;;;22.20;59.10;;;;;;5081640;28;20415;-41
2023/12/02 03:03:21;;;;;;;;;;;22.20;58.70;;;;;;5080064;28;19912;-41
2023/12/02 03:05:47;;;;;;;;;;;22.30;58.70;;;;;;5079277;28;20041;-41
2023/12/02 03:08:13;;;;;;;;;;;22.30;58.60;;;;;;5075720;28;20460;-41
2023/12/02 03:10:39;;;;;;;;;;;22.30;58.70;;;;;;5081417;28;19912;-41
2023/12/02 03:13:05;;;;;;;;;;;22.30;58.80;;;;;;5080937;28;19939;-42
2023/12/02 03:15:31;;;;;;;;;;;22.30;58.80;;;;;;5073169;28;19976;-41
2023/12/02 03:17:57;;;;;;;;;;;22.20;58.90;;;;;;5077251;28;19931;-41
2023/12/02 03:20:22;;;;;;;;;;;22.20;58.90;;;;;;5080927;28;19927;-44
2023/12/02 03:22:48;;;;;;;;;;;22.20;58.80;;;;;;5079369;28;19919;-40
2023/12/02 03:25:15;;;;;;;;;;;22.20;58.90;;;;;;5057460;28;19908;-40
2023/12/02 03:27:41;;;;;;;;;;;22.20;59.00;;;;;;5079762;28;20406;-41
2023/12/02 03:30:07;;;;;;;;;;;22.20;58.70;;;;;;5081427;28;19931;-41
2023/12/02 03:32:33;;;;;;;;;;;22.30;58.80;;;;;;5080460;28;19908;-41
2023/12/02 03:34:59;;;;;;;;;;;22.30;58.80;;;;;;5077358;28;19908;-41
2023/12/02 03:37:25;;;;;;;;;;;22.30;58.90;;;;;;5080714;28;19919;-41
2023/12/02 03:39:50;;;;;;;;;;;22.30;58.90;;;;;;5075781;28;19920;-41
2023/12/02 03:42:16;;;;;;;;;;;22.20;59.10;;;;;;5085206;28;19912;-41
2023/12/02 03:44:42;;;;;;;;;;;22.20;59.10;;;;;;5076767;28;19917;-41
2023/12/02 03:47:08;;;;;;;;;;;22.20;59.20;;;;;;5082426;28;19909;-42
2023/12/02 03:49:34;;;;;;;;;;;22.20;59.20;;;;;;5088259;28;19912;-41
2023/12/02 03:52:00;;;;;;;;;;;22.20;59.20;;;;;;5085398;28;19909;-41
2023/12/02 03:54:26;;;;;;;;;;;22.20;59.30;;;;;;5066075;28;20582;-42
2023/12/02 03:56:52;;;;;;;;;;;22.20;58.80;;;;;;5083688;28;19959;-41
2023/12/02 03:59:18;;;;;;;;;;;22.30;58.90;;;;;;5082963;28;19935;-42
2023/12/02 04:01:44;;;;;;;;;;;22.30;58.80;;;;;;5079629;28;19985;-40
2023/12/02 04:04:10;;;;;;;;;;;22.30;59.10;;;;;;5086783;28;19972;-40
2023/12/02 04:06:35;;;;;;;;;;;22.30;59.00;;;;;;5084793;28;19923;-40
2023/12/02 04:09:01;;;;;;;;;;;22.30;59.10;;;;;;5086262;28;19916;-40
2023/12/02 04:11:27;;;;;;;;;;;22.20;59.00;;;;;;5081963;28;20026;-41
2023/12/02 04:13:53;;;;;;;;;;;22.20;59.00;;;;;;5084972;28;19908;-40
2023/12/02 04:16:19;;;;;;;;;;;22.20;59.00;;;;;;5085961;28;19920;-40
2023/12/02 04:18:45;;;;;;;;;;;22.20;59.20;;;;;;5086773;28;19947;-40
2023/12/02 04:21:11;;;;;;;;;;;22.20;59.10;;;;;;5085564;28;19920;-41
2023/12/02 04:23:37;;;;;;;;;;;22.20;58.90;;;;;;5084984;28;19916;-41
2023/12/02 04:26:03;;;;;;;;;;;22.20;58.90;;;;;;5078555;28;19951;-41
2023/12/02 04:28:29;;;;;;;;;;;22.30;58.90;;;;;;5085238;28;19908;-40
2023/12/02 04:30:55;;;;;;;;;;;22.30;59.00;;;;;;5080959;28;19912;-41
2023/12/02 04:33:20;;;;;;;;;;;22.20;59.00;;;;;;5084684;28;19958;-40
2023/12/02 04:35:46;;;;;;;;;;;22.20;59.00;;;;;;5084239;28;19920;-41
2023/12/02 04:38:12;;;;;;;;;;;22.20;59.00;;;;;;5085385;28;19913;-40
2023/12/02 04:40:38;;;;;;;;;;;22.20;59.00;;;;;;5078983;28;19966;-40
2023/12/02 04:43:04;;;;;;;;;;;22.20;59.30;;;;;;5085752;28;19913;-40
2023/12/02 04:45:30;;;;;;;;;;;22.20;59.20;;;;;;5084992;28;19943;-40
2023/12/02 04:47:56;;;;;;;;;;;22.20;59.00;;;;;;5084754;28;19922;-39
2023/12/02 04:50:22;;;;;;;;;;;22.30;59.00;;;;;;5085900;28;19944;-39
2023/12/02 04:52:48;;;;;;;;;;;22.20;59.00;;;;;;5083994;28;19916;-40
2023/12/02 04:55:14;;;;;;;;;;;22.20;59.10;;;;;;5085624;28;20003;-40
2023/12/02 04:57:41;;;;;;;;;;;22.20;59.20;;;;;;5084920;28;20293;-40
2023/12/02 05:00:13;;;;;;;;;;;22.20;59.30;;;;;;5081901;28;19924;-40
2023/12/02 05:02:42;;;;;;;;;;;22.20;59.20;;;;;;5083630;28;19947;-40
2023/12/02 05:05:09;;;;;;;;;;;22.20;59.20;;;;;;5084365;28;19912;-40
2023/12/02 05:07:34;;;;;;;;;;;22.20;59.50;;;;;;5076312;28;20046;-40
2023/12/02 05:10:00;;;;;;;;;;;22.20;59.10;;;;;;5082694;28;20783;-40
2023/12/02 05:12:26;;;;;;;;;;;22.20;59.10;;;;;;5084756;28;19987;-41
2023/12/02 05:14:52;;;;;;;;;;;22.20;59.10;;;;;;5084448;28;19912;-41
2023/12/02 05:17:18;;;;;;;;;;;22.20;59.20;;;;;;5082510;28;19940;-40
2023/12/02 05:19:44;;;;;;;;;;;22.20;59.50;;;;;;5084204;28;19939;-41
2023/12/02 05:22:10;;;;;;;;;;;22.20;59.50;;;;;;5077600;28;19912;-40
2023/12/02 05:24:36;;;;;;;;;;;22.20;59.50;;;;;;5079515;28;19932;-41
2023/12/02 05:27:02;;;;;;;;;;;22.20;59.40;;;;;;5077619;28;19913;-40
2023/12/02 05:29:28;;;;;;;;;;;22.20;59.80;;;;;;5084409;28;19916;-40
2023/12/02 05:31:54;;;;;;;;;;;22.20;59.40;;;;;;5075434;28;19923;-40
2023/12/02 05:34:20;;;;;;;;;;;22.20;59.30;;;;;;5080003;28;19916;-40
2023/12/02 05:36:46;;;;;;;;;;;22.20;59.30;;;;;;5074445;28;19912;-40
2023/12/02 05:39:13;;;;;;;;;;;22.20;59.40;;;;;;5083441;28;19916;-41
2023/12/02 05:41:42;;;;;;;;;;;22.20;59.50;;;;;;5083238;28;20698;-40
2023/12/02 05:44:09;;;;;;;;;;;22.20;59.60;;;;;;5079292;28;19917;-41
2023/12/02 05:46:35;;;;;;;;;;;22.20;59.70;;;;;;5077666;28;19908;-41
2023/12/02 05:49:01;;;;;;;;;;;22.20;59.70;;;;;;5071649;28;19920;-40
2023/12/02 05:51:27;;;;;;;;;;;22.20;59.80;;;;;;5082197;28;19913;-41
2023/12/02 05:53:53;;;;;;;;;;;22.20;59.30;;;;;;5076295;28;19924;-40
2023/12/02 05:56:19;;;;;;;;;;;22.20;59.30;;;;;;5070567;28;19920;-41
2023/12/02 05:58:45;;;;;;;;;;;22.20;59.30;;;;;;5071824;28;19922;-41
2023/12/02 06:01:11;;;;;;;;;;;22.20;59.30;;;;;;5081565;28;20270;-40
2023/12/02 06:03:37;;;;;;;;;;;22.20;59.40;;;;;;5082134;28;19912;-40
2023/12/02 06:06:09;;;;;;;;;;;22.20;59.40;;;;;;5085956;28;20023;-40
2023/12/02 06:08:35;;;;;;;;;;;22.20;59.30;;;;;;5080313;28;19934;-41
2023/12/02 06:11:01;;;;;;;;;;;22.20;59.40;;;;;;5073508;28;19968;-41
2023/12/02 06:13:29;;;;;;;;;;;22.10;59.30;;;;;;5076341;28;20427;-40
2023/12/02 06:15:55;;;;;;;;;;;22.10;59.20;;;;;;5072243;28;19913;-40
2023/12/02 06:18:21;;;;;;;;;;;22.10;59.30;;;;;;5076184;28;19936;-40
2023/12/02 06:20:46;;;;;;;;;;;22.20;59.20;;;;;;5079974;28;20672;-41
2023/12/02 06:23:12;;;;;;;;;;;22.20;59.10;;;;;;5080433;28;19916;-40
2023/12/02 06:25:38;;;;;;;;;;;22.20;59.10;;;;;;5072625;28;19909;-40
2023/12/02 06:28:04;;;;;;;;;;;22.20;59.20;;;;;;5071690;28;19923;-40
2023/12/02 06:30:31;;;;;;;;;;;22.20;59.20;;;;;;5076921;28;19913;-40
2023/12/02 06:32:57;;;;;;;;;;;22.20;59.20;;;;;;5072697;28;20255;-40
2023/12/02 06:35:23;;;;;;;;;;;22.20;59.20;;;;;;5079797;28;19938;-40
2023/12/02 06:37:49;;;;;;;;;;;22.10;59.20;;;;;;5079514;28;19919;-40
2023/12/02 06:40:15;;;;;;;;;;;22.10;59.10;;;;;;5077157;28;19940;-41
2023/12/02 06:42:40;;;;;;;;;;;22.10;59.40;;;;;;5079855;28;19919;-42
2023/12/02 06:45:07;;;;;;;;;;;22.20;59.20;;;;;;5069144;28;19931;-42
2023/12/02 06:47:32;;;;;;;;;;;22.20;59.20;;;;;;5079555;28;19980;-41
2023/12/02 06:49:58;;;;;;;;;;;22.20;59.20;;;;;;5064923;28;19917;-41
2023/12/02 06:52:24;;;;;;;;;;;22.20;59.30;;;;;;5076763;28;20451;-43
2023/12/02 06:54:50;;;;;;;;;;;22.20;59.30;;;;;;5082088;28;20319;-41
2023/12/02 06:57:16;;;;;;;;;;;22.10;59.20;;;;;;5073676;28;20316;-41
2023/12/02 06:59:44;;;;;;;;;;;22.10;59.30;;;;;;5074149;28;19952;-41
2023/12/02 07:02:10;;;;;;;;;;;22.10;59.40;;;;;;5075377;28;19934;-42
2023/12/02 07:04:36;;;;;;;;;;;22.10;59.30;;;;;;5082126;28;19959;-41
2023/12/02 07:07:01;;;;;;;;;;;22.10;59.50;;;;;;5068398;28;19914;-41
2023/12/02 07:09:27;;;;;;;;;;;22.20;59.30;;;;;;5080124;28;19913;-41
2023/12/02 07:11:53;;;;;;;;;;;22.20;59.20;;;;;;5078354;28;19912;-41
2023/12/02 07:14:19;;;;;;;;;;;22.20;59.30;;;;;;5073734;28;19912;-40
2023/12/02 07:16:45;;;;;;;;;;;22.20;59.30;;;;;;5075504;28;20322;-41
2023/12/02 07:19:11;;;;;;;;;;;22.20;59.20;;;;;;5080542;28;19943;-42
2023/12/02 07:21:37;;;;;;;;;;;22.10;59.10;;;;;;5075843;28;19928;-45
2023/12/02 07:24:02;;;;;;;;;;;22.10;58.70;;;;;;5069420;28;19981;-44
2023/12/02 07:26:28;;;;;;;;;;;22.10;58.50;;;;;;5073992;28;19919;-41
2023/12/02 07:28:54;;;;;;;;;;;22.00;58.90;;;;;;5080560;28;19984;-41
2023/12/02 07:31:20;;;;;;;;;;;22.00;59.00;;;;;;5080420;28;19978;-41
2023/12/02 07:33:46;;;;;;;;;;;22.00;59.10;;;;;;5076921;28;19919;-41
2023/12/02 07:36:12;;;;;;;;;;;22.10;59.10;;;;;;5082051;28;19956;-41
2023/12/02 07:38:40;;;;;;;;;;;22.10;59.20;;;;;;5094863;28;19944;-41
2023/12/02 07:41:07;;;;;;;;;;;22.20;59.20;;;;;;5082683;28;19959;-41
2023/12/02 07:43:33;;;;;;;;;;;22.10;59.10;;;;;;5082393;28;19915;-40
2023/12/02 07:45:59;;;;;;;;;;;22.10;59.30;;;;;;5082451;28;19913;-40
2023/12/02 07:48:25;;;;;;;;;;;22.10;59.30;;;;;;5081865;28;19986;-40
2023/12/02 07:50:51;;;;;;;;;;;22.10;59.20;;;;;;5074861;28;20396;-40
2023/12/02 07:53:17;;;;;;;;;;;22.10;59.20;;;;;;5070682;28;19916;-40
2023/12/02 07:55:43;;;;;;;;;;;22.00;59.20;;;;;;5080765;28;19919;-41
2023/12/02 07:58:09;;;;;;;;;;;22.10;59.40;;;;;;5077911;28;19971;-40
2023/12/02 08:00:35;;;;;;;;;;;22.10;59.20;;;;;;5078936;28;19912;-40
2023/12/02 08:03:01;;;;;;;;;;;22.20;59.20;;;;;;5081447;28;19912;-40
2023/12/02 08:05:27;;;;;;;;;;;22.20;59.20;;;;;;5075479;28;19919;-41
2023/12/02 08:07:53;;;;;;;;;;;22.10;59.20;;;;;;5081244;28;20071;-40
2023/12/02 08:10:19;;;;;;;;;;;22.10;59.20;;;;;;5081934;28;19913;-41
2023/12/02 08:12:45;;;;;;;;;;;22.10;59.40;;;;;;5081314;28;19995;-40
2023/12/02 08:15:11;;;;;;;;;;;22.10;59.20;;;;;;5077505;28;19919;-40
2023/12/02 08:17:37;;;;;;;;;;;22.10;59.50;;;;;;5075138;28;19955;-40
2023/12/02 08:20:03;;;;;;;;;;;22.10;59.60;;;;;;5079572;28;19920;-40
2023/12/02 08:22:31;;;;;;;;;;;22.10;60.00;;;;;;5081759;28;19955;-40
2023/12/02 08:24:57;;;;;;;;;;;22.20;59.50;;;;;;5081908;28;19935;-41
2023/12/02 08:27:23;;;;;;;;;;;22.20;59.50;;;;;;5081425;28;19935;-41
2023/12/02 08:29:49;;;;;;;;;;;22.10;59.60;;;;;;5080177;28;19962;-41
2023/12/02 08:32:15;;;;;;;;;;;22.10;59.60;;;;;;5085335;28;19908;-42
2023/12/02 08:34:40;;;;;;;;;;;22.10;59.60;;;;;;5084839;28;20018;-40
2023/12/02 08:37:06;;;;;;;;;;;22.10;59.50;;;;;;5083074;28;19920;-41
2023/12/02 08:39:32;;;;;;;;;;;22.10;59.50;;;;;;5085750;28;19955;-40
2023/12/02 08:41:58;;;;;;;;;;;22.00;59.60;;;;;;5083573;28;19908;-40
2023/12/02 08:44:24;;;;;;;;;;;22.10;59.50;;;;;;5084743;28;20023;-40
2023/12/02 08:46:52;;;;;;;;;;;22.10;59.40;;;;;;5081001;28;19955;-40
2023/12/02 08:49:18;;;;;;;;;;;22.10;59.40;;;;;;5080330;28;19915;-40
2023/12/02 08:51:44;;;;;;;;;;;22.10;59.40;;;;;;5083285;28;19908;-41
2023/12/02 08:54:10;;;;;;;;;;;22.10;59.50;;;;;;5084824;28;19912;-41
2023/12/02 08:56:36;;;;;;;;;;;22.10;59.40;;;;;;5084731;28;19919;-40
2023/12/02 08:59:02;;;;;;;;;;;22.10;59.40;;;;;;5085347;28;20308;-40
2023/12/02 09:01:28;;;;;;;;;;;22.10;59.50;;;;;;5082245;28;20354;-41
2023/12/02 09:03:54;;;;;;;;;;;22.00;59.50;;;;;;5084099;28;20437;-40
2023/12/02 09:06:20;;;;;;;;;;;22.00;59.40;;;;;;5084981;28;19909;-40
2023/12/02 09:08:46;;;;;;;;;;;22.00;59.60;;;;;;5085016;28;20479;-41
2023/12/02 09:11:12;;;;;;;;;;;22.10;59.50;;;;;;5084736;28;19908;-41
2023/12/02 09:13:46;;;;;;;;;;;22.10;59.40;;;;;;5086858;28;19954;-41
2023/12/02 09:16:15;;;;;;;;;;;22.10;59.40;;;;;;5074176;28;20277;-41
2023/12/02 09:18:41;;;;;;;;;;;22.10;59.50;;;;;;5100728;28;19952;-40
2023/12/02 09:21:19;;;;;;;;;;;22.10;59.60;;;;;;5076733;28;19928;-41
2023/12/02 09:23:45;;;;;;;;;;;22.10;59.60;;;;;;5084033;28;20606;-41
2023/12/02 09:26:27;;;;;;;;;;;22.00;59.60;;;;;;5061708;28;19962;-40
2023/12/02 09:28:54;;;;;;;;;;;22.00;59.50;;;;;;5083539;28;20365;-40
2023/12/02 09:31:20;;;;;;;;;;;22.00;59.50;;;;;;5080388;28;19912;-41
2023/12/02 09:33:47;;;;;;;;;;;22.00;59.80;;;;;;5083413;28;19912;-41
2023/12/02 09:36:26;;;;;;;;;;;22.00;59.70;;;;;;5057363;28;19935;-41
2023/12/02 09:38:53;;;;;;;;;;;22.10;59.60;;;;;;5081282;28;19912;-40
2023/12/02 09:41:32;;;;;;;;;;;22.10;59.60;;;;;;5082533;28;19991;-41
2023/12/02 09:44:03;;;;;;;;;;;22.10;59.80;;;;;;5082318;28;19920;-42
2023/12/02 09:46:31;;;;;;;;;;;22.10;59.80;;;;;;5083731;28;19908;-42
2023/12/02 09:49:14;;;;;;;;;;;22.00;59.70;;;;;;5084082;28;19912;-41
2023/12/02 09:51:52;;;;;;;;;;;22.00;59.80;;;;;;5081156;28;19919;-42
2023/12/02 09:54:19;;;;;;;;;;;22.00;59.70;;;;;;5054068;28;19912;-41
2023/12/02 09:56:48;;;;;;;;;;;22.00;60.00;;;;;;5082561;28;19919;-42
2023/12/02 09:59:14;;;;;;;;;;;22.00;59.70;;;;;;5078313;28;20319;-42
2023/12/02 10:02:03;;;;;;;;;;;22.10;59.70;;;;;;5085833;28;19916;-42
2023/12/02 10:04:50;;;;;;;;;;;22.10;59.70;;;;;;5072879;28;19915;-43
2023/12/02 10:07:28;;;;;;;;;;;22.10;59.90;;;;;;5077162;28;19980;-43
2023/12/02 10:09:54;;;;;;;;;;;22.10;60.00;;;;;;5083155;28;19912;-42
2023/12/02 10:12:38;;;;;;;;;;;22.00;60.00;;;;;;5080967;28;20017;-41
2023/12/02 10:15:07;;;;;;;;;;;22.00;60.10;;;;;;5083203;28;19908;-41
2023/12/02 10:17:57;;;;;;;;;;;22.00;60.10;;;;;;5021716;28;19967;-44
2023/12/02 10:20:27;;;;;;;;;;;22.10;60.00;;;;;;5022292;28;19917;-41
2023/12/02 10:23:13;;;;;;;;;;;22.10;60.30;;;;;;5021929;28;19913;-42
2023/12/02 10:25:42;;;;;;;;;;;22.20;60.40;;;;;;4990429;28;19914;-42
2023/12/02 10:28:31;;;;;;;;;;;22.10;60.10;;;;;;4968024;28;19965;-41
2023/12/02 10:30:58;;;;;;;;;;;22.10;60.30;;;;;;4981458;28;20389;-41
2023/12/02 10:33:27;;;;;;;;;;;22.10;60.30;;;;;;4996607;28;19909;-42
2023/12/02 10:35:57;;;;;;;;;;;22.10;60.30;;;;;;4993510;28;19909;-41
2023/12/02 10:38:38;;;;;;;;;;;22.00;60.10;;;;;;4987563;28;19918;-41
2023/12/02 10:41:10;;;;;;;;;;;22.00;60.20;;;;;;4985138;28;20342;-41
2023/12/02 10:43:41;;;;;;;;;;;22.10;59.90;;;;;;4985683;28;19918;-41
2023/12/02 10:46:07;;;;;;;;;;;22.10;59.80;;;;;;4986015;28;19922;-41
2023/12/02 10:48:34;;;;;;;;;;;22.10;59.90;;;;;;4990230;28;19909;-41
2023/12/02 10:51:00;;;;;;;;;;;22.10;59.90;;;;;;4987717;28;19910;-41
2023/12/02 10:53:26;;;;;;;;;;;22.10;59.90;;;;;;5001150;28;19989;-41
2023/12/02 10:55:55;;;;;;;;;;;22.10;59.90;;;;;;4986620;28;19921;-41
2023/12/02 10:58:22;;;;;;;;;;;22.10;60.00;;;;;;5002903;28;19909;-41
2023/12/02 11:00:49;;;;;;;;;;;22.10;59.90;;;;;;5003098;28;19933;-40
2023/12/02 11:03:25;;;;;;;;;;;22.00;59.90;;;;;;5064303;28;19919;-40
2023/12/02 11:06:05;;;;;;;;;;;22.00;60.00;;;;;;5095079;28;20524;-41
2023/12/02 11:09:03;;;;;;;;;;;22.10;60.00;;;;;;5087462;28;19909;-40
2023/12/02 11:11:47;;;;;;;;;;;22.10;59.80;;;;;;5069136;28;19984;-41
2023/12/02 11:14:20;;;;;;;;;;;22.10;59.80;;;;;;5073321;28;19918;-43
2023/12/02 11:16:52;;;;;;;;;;;22.10;59.80;;;;;;5069402;28;19913;-40
2023/12/02 11:19:28;;;;;;;;;;;22.10;59.90;;;;;;5070713;28;19923;-41
2023/12/02 11:22:12;;;;;;;;;;;22.00;59.80;;;;;;5060845;28;19935;-41
2023/12/02 11:24:38;;;;;;;;;;;22.00;59.90;;;;;;5076666;28;20982;-40
2023/12/02 11:27:16;;;;;;;;;;;22.00;59.90;;;;;;5079319;28;19919;-40
2023/12/02 11:29:57;;;;;;;;;;;22.00;60.20;;;;;;5072027;28;19911;-40
2023/12/02 11:32:46;;;;;;;;;;;22.00;60.30;;;;;;5064277;28;19909;-40
2023/12/02 11:35:16;;;;;;;;;;;22.10;60.10;;;;;;5038785;28;19908;-41
2023/12/02 11:37:54;;;;;;;;;;;22.10;60.00;;;;;;5062650;28;19915;-40
2023/12/02 11:40:21;;;;;;;;;;;22.10;60.10;;;;;;5082001;28;20694;-40
2023/12/02 11:42:55;;;;;;;;;;;22.10;60.30;;;;;;5076984;28;20685;-40
2023/12/02 11:45:23;;;;;;;;;;;22.00;60.30;;;;;;5062308;28;19916;-40
2023/12/02 11:47:49;;;;;;;;;;;22.00;60.30;;;;;;5073834;28;19922;-40
2023/12/02 11:50:32;;;;;;;;;;;22.00;60.10;;;;;;5069699;28;19943;-40
2023/12/02 11:53:13;;;;;;;;;;;22.00;60.30;;;;;;5085914;28;19923;-41
2023/12/02 11:55:48;;;;;;;;;;;22.00;60.30;;;;;;5071257;28;20266;-40
2023/12/02 11:58:31;;;;;;;;;;;22.00;60.20;;;;;;5079107;28;19920;-41
2023/12/02 12:01:03;;;;;;;;;;;22.10;60.00;;;;;;5074646;28;19925;-41
2023/12/02 12:03:31;;;;;;;;;;;22.10;60.20;;;;;;5080454;28;19915;-41
2023/12/02 12:06:04;;;;;;;;;;;22.10;61.00;;;;;;5079787;28;19916;-41
2023/12/02 12:08:33;;;;;;;;;;;22.10;60.60;;;;;;5075047;28;19944;-41
2023/12/02 12:10:59;;;;;;;;;;;22.10;60.70;;;;;;5083252;28;20062;-41
2023/12/02 12:13:26;;;;;;;;;;;22.00;60.40;;;;;;5082092;28;19916;-41
2023/12/02 12:15:52;;;;;;;;;;;22.00;60.60;;;;;;5059693;28;19916;-41
2023/12/02 12:18:18;;;;;;;;;;;22.00;60.60;;;;;;5078063;28;19908;-41
2023/12/02 12:20:47;;;;;;;;;;;22.10;60.20;;;;;;5075306;28;19975;-41
2023/12/02 12:23:13;;;;;;;;;;;22.10;60.10;;;;;;5080599;28;20317;-43
2023/12/02 12:25:40;;;;;;;;;;;22.10;60.20;;;;;;5082722;28;19915;-41
2023/12/02 12:28:06;;;;;;;;;;;22.10;59.90;;;;;;5079136;28;19919;-40
2023/12/02 12:30:45;;;;;;;;;;;22.10;60.20;;;;;;5078466;28;19912;-40
2023/12/02 12:33:14;;;;;;;;;;;22.10;60.30;;;;;;5086294;28;19913;-40
2023/12/02 12:35:41;;;;;;;;;;;22.00;60.30;;;;;;5084282;28;20021;-40
2023/12/02 12:38:08;;;;;;;;;;;22.00;60.40;;;;;;5085538;28;20484;-40
2023/12/02 12:40:35;;;;;;;;;;;22.00;60.40;;;;;;5082395;28;19920;-40
2023/12/02 12:43:01;;;;;;;;;;;22.00;60.50;;;;;;5084160;28;19909;-41
2023/12/02 12:45:27;;;;;;;;;;;22.00;60.40;;;;;;5084480;28;19927;-41
2023/12/02 12:47:56;;;;;;;;;;;22.00;60.10;;;;;;5082641;28;19909;-41
2023/12/02 12:50:22;;;;;;;;;;;22.10;60.30;;;;;;5081667;28;19913;-41
2023/12/02 12:52:49;;;;;;;;;;;22.00;60.20;;;;;;5083971;28;19962;-41
2023/12/02 12:55:20;;;;;;;;;;;22.00;60.30;;;;;;5084620;28;19920;-41
2023/12/02 12:57:46;;;;;;;;;;;22.00;60.30;;;;;;5085151;28;19919;-42
2023/12/02 13:00:13;;;;;;;;;;;22.00;60.40;;;;;;5078676;28;19917;-42
2023/12/02 13:02:44;;;;;;;;;;;21.90;60.20;;;;;;5079416;28;19915;-41
2023/12/02 13:05:10;;;;;;;;;;;21.90;60.30;;;;;;5100149;28;19912;-42
2023/12/02 13:07:40;;;;;;;;;;;21.90;60.40;;;;;;5099703;28;19951;-41
2023/12/02 13:10:06;;;;;;;;;;;21.90;60.40;;;;;;5084569;28;19912;-40
2023/12/02 13:12:33;;;;;;;;;;;21.90;60.40;;;;;;5083597;28;19923;-40
2023/12/02 13:15:03;;;;;;;;;;;22.00;60.40;;;;;;5084525;28;19916;-41
2023/12/02 13:17:29;;;;;;;;;;;22.00;60.30;;;;;;5078497;28;19908;-41
2023/12/02 13:19:55;;;;;;;;;;;22.00;60.40;;;;;;5084132;28;19928;-41
2023/12/02 13:22:21;;;;;;;;;;;21.90;60.40;;;;;;5079512;28;19970;-41
2023/12/02 13:25:10;;;;;;;;;;;21.90;60.50;;;;;;5084713;28;19916;-40
2023/12/02 13:27:44;;;;;;;;;;;21.90;60.60;;;;;;5077424;28;19920;-41
2023/12/02 13:30:10;;;;;;;;;;;21.90;60.60;;;;;;5078061;28;19918;-42
2023/12/02 13:32:39;;;;;;;;;;;21.90;60.60;;;;;;5098238;28;19918;-42
2023/12/02 13:35:09;;;;;;;;;;;21.90;60.60;;;;;;5084905;28;19919;-42
2023/12/02 13:37:38;;;;;;;;;;;22.00;60.60;;;;;;5082569;28;19912;-41
2023/12/02 13:40:04;;;;;;;;;;;21.90;60.60;;;;;;5078408;28;19974;-42
2023/12/02 13:42:32;;;;;;;;;;;21.90;60.60;;;;;;5083027;28;19913;-40
2023/12/02 13:45:04;;;;;;;;;;;21.90;60.80;;;;;;5099071;28;19924;-41
2023/12/02 13:47:49;;;;;;;;;;;21.90;61.20;;;;;;5098902;28;19908;-41
2023/12/02 13:50:16;;;;;;;;;;;21.90;61.40;;;;;;5075595;28;20262;-41
2023/12/02 13:52:53;;;;;;;;;;;21.90;61.40;;;;;;5058786;28;19909;-41
2023/12/02 13:55:31;;;;;;;;;;;21.90;61.40;;;;;;5075881;28;19947;-42
2023/12/02 13:58:03;;;;;;;;;;;21.90;61.20;;;;;;5071651;28;19948;-41
2023/12/02 14:00:35;;;;;;;;;;;21.90;61.00;;;;;;5079349;28;19916;-41
2023/12/02 14:03:05;;;;;;;;;;;22.00;61.00;;;;;;5078900;28;19971;-40
2023/12/02 14:05:39;;;;;;;;;;;22.00;61.00;;;;;;5081395;28;19920;-40
2023/12/02 14:08:05;;;;;;;;;;;21.90;61.00;;;;;;5076531;28;19935;-40
2023/12/02 14:10:31;;;;;;;;;;;21.90;61.00;;;;;;5078658;28;19913;-40
2023/12/02 14:13:08;;;;;;;;;;;21.90;61.10;;;;;;5078244;28;19988;-40
2023/12/02 14:15:34;;;;;;;;;;;21.90;61.00;;;;;;5077968;28;19928;-40
2023/12/02 14:18:20;;;;;;;;;;;21.80;61.10;;;;;;5084978;28;20015;-40
2023/12/02 14:21:05;;;;;;;;;;;21.90;60.90;;;;;;5074951;28;19917;-41